Airfield :
LOGIN :

Register | Disclaimer

   EN    FR    IT 

 










Legend :    VFR   Marginal VFR   IFR   Intensive IFR   Very Intensive IFR
Visi :
Ceiling :
>= 8 km
>= 3000ft
5 to 8 km
1000 to 3000 ft
1500m to 5 km
500 to 1000 ft
800 to 1500m
200 to 500 ft
< 800m
< 200 ft
Symbols :   Thunderstorms  Fog  Heavy snow  Heavy precipitations  Wind > 20 kt
SIGMETs :     Misc.  Thunderstorms  Icing  Turbulence  Mountain Waves  Volcanic Ashes






- Airport Elevation : 1416 ft
- IATA code : ZRH


LSZH - Zurich

CURRENT METAR :
  • 142250Z 25003KT 9999 FEW035 19/16 Q1017 NOSIG

EXPIRED METARs :
  • 142220Z 24004KT 9999 FEW035 19/16 Q1017 NOSIG
  • 142150Z 24003KT 9999 FEW030TCU SCT060 20/17 Q1017 NOSIG
  • 142120Z VRB02KT 9999 SCT030TCU BKN060 20/17 Q1017 NOSIG
  • 142050Z 11003KT 9999 FEW030TCU FEW060 19/17 Q1017 NOSIG
  • 142020Z 23002KT 9999 FEW025 FEW030TCU 19/17 Q1017 NOSIG

TAF TAF LSZH
Valid from the 14 at 21:00 until the 16 at 03:00 UTC


142025Z 1421/1603 VRB03KT 9999 FEW030 TX28/1515Z TN16/1504Z
PROB30
TEMPO 1421/1422 -SHRA FEW030TCU
BECMG 1421/1424 CAVOK
BECMG 1423/1502 9000 MIFG NSC
BECMG 1501/1504 4000 BCFG FEW002
PROB30 1502/1506 1500 PRFG BKN002
BECMG 1505/1508 9999 FEW050
TEMPO 1513/1518 05006KT
BECMG 1516/1519 CAVOK
PROB30 1601/1603 9999 MIFG NSC
ATIS : +41 43 816 2295 (DEP) +41 43 816 2294 (ARR)



MET'MAP, your aeronautical weather chart ! - Copyright ORBIFLY December 2007 - Disclaimer

ORBIFLY MET'MAP TEAM :

Programming & Development : Alexandra Zaïnal
Concept & original design : Baudouin d'Aumeries
Assistance for programming : Marc-Olivier Méhu
Technical & hardware support : Manuel Goepfert

Contact : metmap@orbifly.com




SOURCES & CREDITS :

   NOAA